sensor_id;sensor_type;location;lat;lon;timestamp;P1;durP1;ratioP1;P2;durP2;ratioP2
6053;SDS011;3055;50.886;14.814;2022-11-15T00:00:56;27.03;;;20.77;;
6053;SDS011;3055;50.886;14.814;2022-11-15T00:03:24;29.23;;;22.20;;
6053;SDS011;3055;50.886;14.814;2022-11-15T00:05:52;27.93;;;20.37;;
6053;SDS011;3055;50.886;14.814;2022-11-15T00:08:19;26.50;;;20.67;;
6053;SDS011;3055;50.886;14.814;2022-11-15T00:10:53;26.63;;;20.43;;
6053;SDS011;3055;50.886;14.814;2022-11-15T00:13:21;26.87;;;20.53;;
6053;SDS011;3055;50.886;14.814;2022-11-15T00:15:48;30.13;;;22.63;;
6053;SDS011;3055;50.886;14.814;2022-11-15T00:18:17;27.60;;;21.23;;
6053;SDS011;3055;50.886;14.814;2022-11-15T00:20:44;29.57;;;22.33;;
6053;SDS011;3055;50.886;14.814;2022-11-15T00:23:11;31.23;;;22.67;;
6053;SDS011;3055;50.886;14.814;2022-11-15T00:25:38;28.13;;;21.03;;
6053;SDS011;3055;50.886;14.814;2022-11-15T00:28:06;29.87;;;21.83;;
6053;SDS011;3055;50.886;14.814;2022-11-15T00:30:33;29.67;;;22.57;;
6053;SDS011;3055;50.886;14.814;2022-11-15T00:33:03;34.67;;;23.00;;
6053;SDS011;3055;50.886;14.814;2022-11-15T00:35:33;30.17;;;22.40;;
6053;SDS011;3055;50.886;14.814;2022-11-15T00:38:01;29.83;;;21.90;;
6053;SDS011;3055;50.886;14.814;2022-11-15T00:40:28;33.87;;;23.20;;
6053;SDS011;3055;50.886;14.814;2022-11-15T00:42:55;32.23;;;23.13;;
6053;SDS011;3055;50.886;14.814;2022-11-15T00:45:22;31.07;;;22.23;;
6053;SDS011;3055;50.886;14.814;2022-11-15T00:47:49;28.03;;;21.97;;
6053;SDS011;3055;50.886;14.814;2022-11-15T00:50:17;28.17;;;22.23;;
6053;SDS011;3055;50.886;14.814;2022-11-15T00:52:45;31.57;;;22.73;;
6053;SDS011;3055;50.886;14.814;2022-11-15T00:55:13;30.93;;;22.13;;
6053;SDS011;3055;50.886;14.814;2022-11-15T00:57:41;32.97;;;22.70;;
6053;SDS011;3055;50.886;14.814;2022-11-15T01:00:08;34.47;;;22.47;;
6053;SDS011;3055;50.886;14.814;2022-11-15T01:02:36;32.40;;;22.90;;
6053;SDS011;3055;50.886;14.814;2022-11-15T01:05:03;33.33;;;22.93;;
6053;SDS011;3055;50.886;14.814;2022-11-15T01:07:31;29.40;;;21.93;;
6053;SDS011;3055;50.886;14.814;2022-11-15T01:10:00;31.43;;;23.30;;
6053;SDS011;3055;50.886;14.814;2022-11-15T01:12:27;28.37;;;21.73;;
6053;SDS011;3055;50.886;14.814;2022-11-15T01:14:54;35.70;;;22.07;;
6053;SDS011;3055;50.886;14.814;2022-11-15T01:17:21;31.63;;;21.30;;
6053;SDS011;3055;50.886;14.814;2022-11-15T01:19:48;27.47;;;20.97;;
6053;SDS011;3055;50.886;14.814;2022-11-15T01:22:15;29.97;;;22.87;;
6053;SDS011;3055;50.886;14.814;2022-11-15T01:24:42;28.20;;;21.90;;
6053;SDS011;3055;50.886;14.814;2022-11-15T01:27:11;28.73;;;22.00;;
6053;SDS011;3055;50.886;14.814;2022-11-15T01:29:38;30.10;;;21.33;;
6053;SDS011;3055;50.886;14.814;2022-11-15T01:32:08;28.63;;;21.73;;
6053;SDS011;3055;50.886;14.814;2022-11-15T01:34:35;27.50;;;21.20;;
6053;SDS011;3055;50.886;14.814;2022-11-15T01:37:02;31.23;;;21.70;;
6053;SDS011;3055;50.886;14.814;2022-11-15T01:39:29;29.87;;;21.10;;
6053;SDS011;3055;50.886;14.814;2022-11-15T01:41:56;28.67;;;22.30;;
6053;SDS011;3055;50.886;14.814;2022-11-15T01:44:38;30.73;;;21.93;;
6053;SDS011;3055;50.886;14.814;2022-11-15T01:47:07;27.77;;;22.10;;
6053;SDS011;3055;50.886;14.814;2022-11-15T01:49:39;33.23;;;23.93;;
6053;SDS011;3055;50.886;14.814;2022-11-15T01:52:13;32.60;;;22.83;;
6053;SDS011;3055;50.886;14.814;2022-11-15T01:54:45;32.20;;;24.27;;
6053;SDS011;3055;50.886;14.814;2022-11-15T01:57:13;31.90;;;22.87;;
6053;SDS011;3055;50.886;14.814;2022-11-15T01:59:42;35.57;;;23.20;;
6053;SDS011;3055;50.886;14.814;2022-11-15T02:02:11;36.90;;;23.20;;
6053;SDS011;3055;50.886;14.814;2022-11-15T02:04:40;30.17;;;23.30;;
6053;SDS011;3055;50.886;14.814;2022-11-15T02:07:09;30.03;;;22.43;;
6053;SDS011;3055;50.886;14.814;2022-11-15T02:09:39;31.73;;;23.90;;
6053;SDS011;3055;50.886;14.814;2022-11-15T02:12:07;33.93;;;23.13;;
6053;SDS011;3055;50.886;14.814;2022-11-15T02:14:35;34.63;;;23.13;;
6053;SDS011;3055;50.886;14.814;2022-11-15T02:17:11;34.13;;;23.37;;
6053;SDS011;3055;50.886;14.814;2022-11-15T02:20:09;32.30;;;23.63;;
6053;SDS011;3055;50.886;14.814;2022-11-15T02:23:00;32.67;;;23.63;;
6053;SDS011;3055;50.886;14.814;2022-11-15T02:25:41;30.50;;;21.47;;
6053;SDS011;3055;50.886;14.814;2022-11-15T02:28:27;29.23;;;22.23;;
6053;SDS011;3055;50.886;14.814;2022-11-15T02:31:10;32.30;;;22.63;;
6053;SDS011;3055;50.886;14.814;2022-11-15T02:33:41;33.03;;;22.63;;
6053;SDS011;3055;50.886;14.814;2022-11-15T02:36:18;30.83;;;22.67;;
6053;SDS011;3055;50.886;14.814;2022-11-15T02:38:57;33.77;;;23.77;;
6053;SDS011;3055;50.886;14.814;2022-11-15T02:41:30;30.00;;;21.80;;
6053;SDS011;3055;50.886;14.814;2022-11-15T02:44:06;33.77;;;24.17;;
6053;SDS011;3055;50.886;14.814;2022-11-15T02:46:39;35.80;;;23.60;;
6053;SDS011;3055;50.886;14.814;2022-11-15T02:49:28;34.57;;;23.27;;
6053;SDS011;3055;50.886;14.814;2022-11-15T02:51:58;32.37;;;24.37;;
6053;SDS011;3055;50.886;14.814;2022-11-15T02:54:26;36.00;;;25.53;;
6053;SDS011;3055;50.886;14.814;2022-11-15T02:56:56;32.17;;;23.20;;
6053;SDS011;3055;50.886;14.814;2022-11-15T02:59:41;36.80;;;25.83;;
6053;SDS011;3055;50.886;14.814;2022-11-15T03:02:27;34.57;;;24.77;;
6053;SDS011;3055;50.886;14.814;2022-11-15T03:05:08;38.17;;;25.80;;
6053;SDS011;3055;50.886;14.814;2022-11-15T03:07:45;33.93;;;25.47;;
6053;SDS011;3055;50.886;14.814;2022-11-15T03:10:20;34.00;;;24.90;;
6053;SDS011;3055;50.886;14.814;2022-11-15T03:12:52;32.87;;;24.27;;
6053;SDS011;3055;50.886;14.814;2022-11-15T03:15:23;32.70;;;24.00;;
6053;SDS011;3055;50.886;14.814;2022-11-15T03:17:57;33.20;;;23.57;;
6053;SDS011;3055;50.886;14.814;2022-11-15T03:20:27;36.90;;;25.63;;
6053;SDS011;3055;50.886;14.814;2022-11-15T03:22:56;35.60;;;26.00;;
6053;SDS011;3055;50.886;14.814;2022-11-15T03:25:27;32.40;;;23.30;;
6053;SDS011;3055;50.886;14.814;2022-11-15T03:27:57;37.13;;;24.60;;
6053;SDS011;3055;50.886;14.814;2022-11-15T03:30:27;33.20;;;24.40;;
6053;SDS011;3055;50.886;14.814;2022-11-15T03:32:58;36.40;;;25.17;;
6053;SDS011;3055;50.886;14.814;2022-11-15T03:35:27;33.13;;;25.23;;
6053;SDS011;3055;50.886;14.814;2022-11-15T03:37:59;35.83;;;25.40;;
6053;SDS011;3055;50.886;14.814;2022-11-15T03:40:33;36.77;;;25.93;;
6053;SDS011;3055;50.886;14.814;2022-11-15T03:43:06;40.43;;;26.20;;
6053;SDS011;3055;50.886;14.814;2022-11-15T03:45:39;37.70;;;27.20;;
6053;SDS011;3055;50.886;14.814;2022-11-15T03:48:12;38.03;;;28.30;;
6053;SDS011;3055;50.886;14.814;2022-11-15T03:50:42;40.60;;;28.03;;
6053;SDS011;3055;50.886;14.814;2022-11-15T03:53:11;40.53;;;27.37;;
6053;SDS011;3055;50.886;14.814;2022-11-15T03:55:39;38.80;;;27.37;;
6053;SDS011;3055;50.886;14.814;2022-11-15T03:58:06;38.33;;;27.27;;
6053;SDS011;3055;50.886;14.814;2022-11-15T04:00:33;38.50;;;27.50;;
6053;SDS011;3055;50.886;14.814;2022-11-15T04:03:00;37.63;;;26.73;;
6053;SDS011;3055;50.886;14.814;2022-11-15T04:05:28;37.97;;;27.00;;
6053;SDS011;3055;50.886;14.814;2022-11-15T04:07:55;40.03;;;27.43;;
6053;SDS011;3055;50.886;14.814;2022-11-15T04:10:22;34.77;;;26.07;;
6053;SDS011;3055;50.886;14.814;2022-11-15T04:12:49;36.50;;;25.73;;
6053;SDS011;3055;50.886;14.814;2022-11-15T04:15:17;36.20;;;26.53;;
6053;SDS011;3055;50.886;14.814;2022-11-15T04:17:48;38.17;;;27.00;;
6053;SDS011;3055;50.886;14.814;2022-11-15T04:20:16;38.47;;;26.23;;
6053;SDS011;3055;50.886;14.814;2022-11-15T04:23:04;39.33;;;27.63;;
6053;SDS011;3055;50.886;14.814;2022-11-15T04:25:50;36.30;;;25.77;;
6053;SDS011;3055;50.886;14.814;2022-11-15T04:28:20;39.37;;;25.60;;
6053;SDS011;3055;50.886;14.814;2022-11-15T04:30:47;35.73;;;25.63;;
6053;SDS011;3055;50.886;14.814;2022-11-15T04:33:14;39.77;;;26.33;;
6053;SDS011;3055;50.886;14.814;2022-11-15T04:35:41;33.03;;;24.47;;
6053;SDS011;3055;50.886;14.814;2022-11-15T04:38:10;38.93;;;26.87;;
6053;SDS011;3055;50.886;14.814;2022-11-15T04:40:37;37.07;;;24.33;;
6053;SDS011;3055;50.886;14.814;2022-11-15T04:43:04;33.90;;;25.10;;
6053;SDS011;3055;50.886;14.814;2022-11-15T04:45:31;35.43;;;25.87;;
6053;SDS011;3055;50.886;14.814;2022-11-15T04:47:58;36.37;;;24.67;;
6053;SDS011;3055;50.886;14.814;2022-11-15T04:50:25;33.60;;;23.83;;
6053;SDS011;3055;50.886;14.814;2022-11-15T04:52:53;35.00;;;24.93;;
6053;SDS011;3055;50.886;14.814;2022-11-15T04:55:21;35.80;;;25.40;;
6053;SDS011;3055;50.886;14.814;2022-11-15T04:57:56;34.97;;;25.47;;
6053;SDS011;3055;50.886;14.814;2022-11-15T05:00:25;36.50;;;25.67;;
6053;SDS011;3055;50.886;14.814;2022-11-15T05:02:53;34.60;;;25.50;;
6053;SDS011;3055;50.886;14.814;2022-11-15T05:05:37;35.43;;;24.17;;
6053;SDS011;3055;50.886;14.814;2022-11-15T05:08:04;37.40;;;24.93;;
6053;SDS011;3055;50.886;14.814;2022-11-15T05:10:33;36.03;;;26.43;;
6053;SDS011;3055;50.886;14.814;2022-11-15T05:13:00;35.50;;;24.93;;
6053;SDS011;3055;50.886;14.814;2022-11-15T05:15:27;37.13;;;23.47;;
6053;SDS011;3055;50.886;14.814;2022-11-15T05:17:56;33.90;;;23.47;;
6053;SDS011;3055;50.886;14.814;2022-11-15T05:20:25;39.23;;;25.57;;
6053;SDS011;3055;50.886;14.814;2022-11-15T05:22:52;36.47;;;25.40;;
6053;SDS011;3055;50.886;14.814;2022-11-15T05:25:20;34.30;;;24.17;;
6053;SDS011;3055;50.886;14.814;2022-11-15T05:27:48;34.13;;;25.40;;
6053;SDS011;3055;50.886;14.814;2022-11-15T05:30:15;32.00;;;23.73;;
6053;SDS011;3055;50.886;14.814;2022-11-15T05:32:43;38.87;;;25.13;;
6053;SDS011;3055;50.886;14.814;2022-11-15T05:35:12;35.13;;;25.23;;
6053;SDS011;3055;50.886;14.814;2022-11-15T05:37:42;32.67;;;24.13;;
6053;SDS011;3055;50.886;14.814;2022-11-15T05:40:10;36.97;;;24.53;;
6053;SDS011;3055;50.886;14.814;2022-11-15T05:42:37;37.47;;;25.33;;
6053;SDS011;3055;50.886;14.814;2022-11-15T05:45:06;39.47;;;25.07;;
6053;SDS011;3055;50.886;14.814;2022-11-15T05:47:35;34.80;;;25.97;;
6053;SDS011;3055;50.886;14.814;2022-11-15T05:50:04;36.57;;;26.37;;
6053;SDS011;3055;50.886;14.814;2022-11-15T05:52:33;36.13;;;25.80;;
6053;SDS011;3055;50.886;14.814;2022-11-15T05:55:02;38.47;;;25.90;;
6053;SDS011;3055;50.886;14.814;2022-11-15T05:57:31;32.73;;;25.03;;
6053;SDS011;3055;50.886;14.814;2022-11-15T05:59:58;37.33;;;28.10;;
6053;SDS011;3055;50.886;14.814;2022-11-15T06:02:27;41.73;;;27.60;;
6053;SDS011;3055;50.886;14.814;2022-11-15T06:04:53;39.67;;;26.13;;
6053;SDS011;3055;50.886;14.814;2022-11-15T06:07:20;37.27;;;26.60;;
6053;SDS011;3055;50.886;14.814;2022-11-15T06:09:48;36.80;;;27.20;;
6053;SDS011;3055;50.886;14.814;2022-11-15T06:12:15;41.30;;;27.67;;
6053;SDS011;3055;50.886;14.814;2022-11-15T06:14:42;37.63;;;25.53;;
6053;SDS011;3055;50.886;14.814;2022-11-15T06:17:09;38.73;;;25.87;;
6053;SDS011;3055;50.886;14.814;2022-11-15T06:19:37;39.87;;;26.80;;
6053;SDS011;3055;50.886;14.814;2022-11-15T06:22:04;37.23;;;24.40;;
6053;SDS011;3055;50.886;14.814;2022-11-15T06:24:31;40.43;;;26.00;;
6053;SDS011;3055;50.886;14.814;2022-11-15T06:26:58;35.83;;;25.93;;
6053;SDS011;3055;50.886;14.814;2022-11-15T06:29:25;36.70;;;25.70;;
6053;SDS011;3055;50.886;14.814;2022-11-15T06:31:52;36.63;;;26.20;;
6053;SDS011;3055;50.886;14.814;2022-11-15T06:34:19;35.50;;;25.20;;
6053;SDS011;3055;50.886;14.814;2022-11-15T06:36:48;37.57;;;26.07;;
6053;SDS011;3055;50.886;14.814;2022-11-15T06:39:15;35.17;;;26.03;;
6053;SDS011;3055;50.886;14.814;2022-11-15T06:41:42;35.90;;;25.60;;
6053;SDS011;3055;50.886;14.814;2022-11-15T06:44:09;37.40;;;25.53;;
6053;SDS011;3055;50.886;14.814;2022-11-15T06:46:36;35.93;;;25.87;;
6053;SDS011;3055;50.886;14.814;2022-11-15T06:49:03;35.97;;;25.03;;
6053;SDS011;3055;50.886;14.814;2022-11-15T06:51:30;34.30;;;24.20;;
6053;SDS011;3055;50.886;14.814;2022-11-15T06:53:58;34.37;;;25.10;;
6053;SDS011;3055;50.886;14.814;2022-11-15T06:56:25;36.30;;;25.57;;
6053;SDS011;3055;50.886;14.814;2022-11-15T06:58:52;34.53;;;24.67;;
6053;SDS011;3055;50.886;14.814;2022-11-15T07:01:19;35.30;;;24.17;;
6053;SDS011;3055;50.886;14.814;2022-11-15T07:03:46;37.90;;;26.20;;
6053;SDS011;3055;50.886;14.814;2022-11-15T07:06:13;35.53;;;24.13;;
6053;SDS011;3055;50.886;14.814;2022-11-15T07:08:40;39.33;;;24.83;;
6053;SDS011;3055;50.886;14.814;2022-11-15T07:11:09;34.03;;;24.90;;
6053;SDS011;3055;50.886;14.814;2022-11-15T07:13:36;34.50;;;24.97;;
6053;SDS011;3055;50.886;14.814;2022-11-15T07:16:04;34.17;;;23.80;;
6053;SDS011;3055;50.886;14.814;2022-11-15T07:18:33;36.50;;;25.17;;
6053;SDS011;3055;50.886;14.814;2022-11-15T07:21:01;37.07;;;26.13;;
6053;SDS011;3055;50.886;14.814;2022-11-15T07:23:29;37.70;;;25.60;;
6053;SDS011;3055;50.886;14.814;2022-11-15T07:25:57;36.83;;;25.10;;
6053;SDS011;3055;50.886;14.814;2022-11-15T07:28:26;39.13;;;26.90;;
6053;SDS011;3055;50.886;14.814;2022-11-15T07:30:54;37.37;;;26.07;;
6053;SDS011;3055;50.886;14.814;2022-11-15T07:33:21;35.43;;;24.87;;
6053;SDS011;3055;50.886;14.814;2022-11-15T07:35:48;38.10;;;24.80;;
6053;SDS011;3055;50.886;14.814;2022-11-15T07:38:16;36.97;;;24.27;;
6053;SDS011;3055;50.886;14.814;2022-11-15T07:40:45;32.40;;;23.07;;
6053;SDS011;3055;50.886;14.814;2022-11-15T07:43:12;34.13;;;23.23;;
6053;SDS011;3055;50.886;14.814;2022-11-15T07:45:41;32.83;;;23.50;;
6053;SDS011;3055;50.886;14.814;2022-11-15T07:48:09;34.47;;;24.97;;
6053;SDS011;3055;50.886;14.814;2022-11-15T07:50:36;34.00;;;24.00;;
6053;SDS011;3055;50.886;14.814;2022-11-15T07:53:07;34.50;;;24.10;;
6053;SDS011;3055;50.886;14.814;2022-11-15T07:55:35;32.57;;;23.20;;
6053;SDS011;3055;50.886;14.814;2022-11-15T07:58:02;35.33;;;23.17;;
6053;SDS011;3055;50.886;14.814;2022-11-15T08:00:30;34.77;;;24.33;;
6053;SDS011;3055;50.886;14.814;2022-11-15T08:03:05;33.27;;;23.50;;
6053;SDS011;3055;50.886;14.814;2022-11-15T08:05:33;31.30;;;24.00;;
6053;SDS011;3055;50.886;14.814;2022-11-15T08:08:01;34.20;;;23.40;;
6053;SDS011;3055;50.886;14.814;2022-11-15T08:10:29;35.50;;;24.43;;
6053;SDS011;3055;50.886;14.814;2022-11-15T08:12:57;38.90;;;24.70;;
6053;SDS011;3055;50.886;14.814;2022-11-15T08:15:25;34.97;;;23.47;;
6053;SDS011;3055;50.886;14.814;2022-11-15T08:17:53;34.77;;;22.87;;
6053;SDS011;3055;50.886;14.814;2022-11-15T08:20:22;31.80;;;22.17;;
6053;SDS011;3055;50.886;14.814;2022-11-15T08:22:49;34.30;;;23.37;;
6053;SDS011;3055;50.886;14.814;2022-11-15T08:25:19;31.93;;;22.70;;
6053;SDS011;3055;50.886;14.814;2022-11-15T08:27:46;32.73;;;23.93;;
6053;SDS011;3055;50.886;14.814;2022-11-15T08:30:13;34.17;;;24.03;;
6053;SDS011;3055;50.886;14.814;2022-11-15T08:32:41;35.37;;;24.37;;
6053;SDS011;3055;50.886;14.814;2022-11-15T08:35:08;32.90;;;23.27;;
6053;SDS011;3055;50.886;14.814;2022-11-15T08:37:37;32.63;;;21.40;;
6053;SDS011;3055;50.886;14.814;2022-11-15T08:40:04;34.33;;;23.23;;
6053;SDS011;3055;50.886;14.814;2022-11-15T08:42:32;30.83;;;22.73;;
6053;SDS011;3055;50.886;14.814;2022-11-15T08:44:59;30.27;;;22.30;;
6053;SDS011;3055;50.886;14.814;2022-11-15T08:47:26;30.77;;;22.27;;
6053;SDS011;3055;50.886;14.814;2022-11-15T08:49:54;32.30;;;22.30;;
6053;SDS011;3055;50.886;14.814;2022-11-15T08:52:21;33.20;;;23.73;;
6053;SDS011;3055;50.886;14.814;2022-11-15T08:54:49;30.57;;;22.43;;
6053;SDS011;3055;50.886;14.814;2022-11-15T08:57:16;36.10;;;23.40;;
6053;SDS011;3055;50.886;14.814;2022-11-15T08:59:44;31.77;;;22.93;;
6053;SDS011;3055;50.886;14.814;2022-11-15T09:02:11;29.90;;;21.63;;
6053;SDS011;3055;50.886;14.814;2022-11-15T09:04:40;32.00;;;22.67;;
6053;SDS011;3055;50.886;14.814;2022-11-15T09:07:07;29.60;;;22.53;;
6053;SDS011;3055;50.886;14.814;2022-11-15T09:09:35;29.63;;;20.17;;
6053;SDS011;3055;50.886;14.814;2022-11-15T09:12:03;28.63;;;21.03;;
6053;SDS011;3055;50.886;14.814;2022-11-15T09:14:32;27.77;;;19.70;;
6053;SDS011;3055;50.886;14.814;2022-11-15T09:16:59;28.60;;;20.80;;
6053;SDS011;3055;50.886;14.814;2022-11-15T09:19:26;28.67;;;21.63;;
6053;SDS011;3055;50.886;14.814;2022-11-15T09:21:53;30.17;;;21.40;;
6053;SDS011;3055;50.886;14.814;2022-11-15T09:24:20;33.93;;;23.23;;
6053;SDS011;3055;50.886;14.814;2022-11-15T09:26:49;28.10;;;20.53;;
6053;SDS011;3055;50.886;14.814;2022-11-15T09:29:17;30.17;;;20.13;;
6053;SDS011;3055;50.886;14.814;2022-11-15T09:31:45;29.37;;;21.00;;
6053;SDS011;3055;50.886;14.814;2022-11-15T09:34:12;27.57;;;20.73;;
6053;SDS011;3055;50.886;14.814;2022-11-15T09:36:39;27.77;;;20.17;;
6053;SDS011;3055;50.886;14.814;2022-11-15T09:39:06;27.70;;;20.17;;
6053;SDS011;3055;50.886;14.814;2022-11-15T09:41:39;28.50;;;21.10;;
6053;SDS011;3055;50.886;14.814;2022-11-15T09:44:37;28.47;;;20.77;;
6053;SDS011;3055;50.886;14.814;2022-11-15T09:50:11;30.77;;;21.07;;
6053;SDS011;3055;50.886;14.814;2022-11-15T09:52:42;31.87;;;21.63;;
6053;SDS011;3055;50.886;14.814;2022-11-15T09:55:11;28.33;;;20.60;;
6053;SDS011;3055;50.886;14.814;2022-11-15T09:57:48;30.50;;;21.93;;
6053;SDS011;3055;50.886;14.814;2022-11-15T10:00:21;30.93;;;21.43;;
6053;SDS011;3055;50.886;14.814;2022-11-15T10:03:08;28.13;;;21.20;;
6053;SDS011;3055;50.886;14.814;2022-11-15T10:05:40;26.70;;;19.90;;
6053;SDS011;3055;50.886;14.814;2022-11-15T10:08:22;28.50;;;20.23;;
6053;SDS011;3055;50.886;14.814;2022-11-15T10:10:58;26.17;;;20.57;;
6053;SDS011;3055;50.886;14.814;2022-11-15T10:13:26;30.33;;;22.03;;
6053;SDS011;3055;50.886;14.814;2022-11-15T10:16:00;26.23;;;19.47;;
6053;SDS011;3055;50.886;14.814;2022-11-15T10:18:35;29.17;;;20.43;;
6053;SDS011;3055;50.886;14.814;2022-11-15T10:21:17;26.53;;;19.47;;
6053;SDS011;3055;50.886;14.814;2022-11-15T10:23:46;29.53;;;21.10;;
6053;SDS011;3055;50.886;14.814;2022-11-15T10:26:15;26.57;;;20.37;;
6053;SDS011;3055;50.886;14.814;2022-11-15T10:28:42;27.27;;;20.37;;
6053;SDS011;3055;50.886;14.814;2022-11-15T10:31:22;31.90;;;21.63;;
6053;SDS011;3055;50.886;14.814;2022-11-15T10:33:50;31.80;;;22.60;;
6053;SDS011;3055;50.886;14.814;2022-11-15T10:36:23;27.03;;;20.53;;
6053;SDS011;3055;50.886;14.814;2022-11-15T10:38:52;30.50;;;21.23;;
6053;SDS011;3055;50.886;14.814;2022-11-15T10:41:28;33.60;;;22.60;;
6053;SDS011;3055;50.886;14.814;2022-11-15T10:44:07;30.27;;;22.47;;
6053;SDS011;3055;50.886;14.814;2022-11-15T10:46:46;32.43;;;21.90;;
6053;SDS011;3055;50.886;14.814;2022-11-15T10:49:30;30.47;;;22.90;;
6053;SDS011;3055;50.886;14.814;2022-11-15T10:51:58;32.13;;;22.50;;
6053;SDS011;3055;50.886;14.814;2022-11-15T10:54:28;31.47;;;22.27;;
6053;SDS011;3055;50.886;14.814;2022-11-15T10:56:59;32.17;;;22.40;;
6053;SDS011;3055;50.886;14.814;2022-11-15T10:59:32;33.47;;;23.00;;
6053;SDS011;3055;50.886;14.814;2022-11-15T11:02:09;33.73;;;23.20;;
6053;SDS011;3055;50.886;14.814;2022-11-15T11:04:56;36.40;;;25.87;;
6053;SDS011;3055;50.886;14.814;2022-11-15T11:07:24;33.87;;;24.30;;
6053;SDS011;3055;50.886;14.814;2022-11-15T11:10:02;33.87;;;24.43;;
6053;SDS011;3055;50.886;14.814;2022-11-15T11:12:32;37.67;;;26.17;;
6053;SDS011;3055;50.886;14.814;2022-11-15T11:15:00;36.10;;;24.83;;
6053;SDS011;3055;50.886;14.814;2022-11-15T11:17:48;35.23;;;24.30;;
6053;SDS011;3055;50.886;14.814;2022-11-15T11:20:25;36.67;;;25.10;;
6053;SDS011;3055;50.886;14.814;2022-11-15T11:23:03;37.57;;;24.60;;
6053;SDS011;3055;50.886;14.814;2022-11-15T11:25:47;38.57;;;26.33;;
6053;SDS011;3055;50.886;14.814;2022-11-15T11:28:23;37.63;;;26.13;;
6053;SDS011;3055;50.886;14.814;2022-11-15T11:31:03;39.23;;;25.57;;
6053;SDS011;3055;50.886;14.814;2022-11-15T11:33:42;41.10;;;26.37;;
6053;SDS011;3055;50.886;14.814;2022-11-15T11:36:19;37.70;;;26.03;;
6053;SDS011;3055;50.886;14.814;2022-11-15T11:38:55;42.40;;;27.13;;
6053;SDS011;3055;50.886;14.814;2022-11-15T11:41:34;39.63;;;26.77;;
6053;SDS011;3055;50.886;14.814;2022-11-15T11:44:24;39.80;;;25.73;;
6053;SDS011;3055;50.886;14.814;2022-11-15T11:46:59;38.60;;;26.07;;
6053;SDS011;3055;50.886;14.814;2022-11-15T11:49:33;42.33;;;27.47;;
6053;SDS011;3055;50.886;14.814;2022-11-15T11:52:08;40.17;;;27.60;;
6053;SDS011;3055;50.886;14.814;2022-11-15T11:54:40;44.33;;;28.10;;
6053;SDS011;3055;50.886;14.814;2022-11-15T11:57:16;47.67;;;31.10;;
6053;SDS011;3055;50.886;14.814;2022-11-15T11:59:51;47.63;;;30.27;;
6053;SDS011;3055;50.886;14.814;2022-11-15T12:02:25;44.83;;;28.67;;
6053;SDS011;3055;50.886;14.814;2022-11-15T12:05:01;43.20;;;27.50;;
6053;SDS011;3055;50.886;14.814;2022-11-15T12:07:34;45.90;;;30.37;;
6053;SDS011;3055;50.886;14.814;2022-11-15T12:10:11;44.93;;;28.97;;
6053;SDS011;3055;50.886;14.814;2022-11-15T12:12:44;45.90;;;29.60;;
6053;SDS011;3055;50.886;14.814;2022-11-15T12:15:18;49.80;;;32.70;;
6053;SDS011;3055;50.886;14.814;2022-11-15T12:17:48;44.77;;;27.83;;
6053;SDS011;3055;50.886;14.814;2022-11-15T12:20:18;44.63;;;29.00;;
6053;SDS011;3055;50.886;14.814;2022-11-15T12:22:49;43.50;;;28.93;;
6053;SDS011;3055;50.886;14.814;2022-11-15T12:25:22;44.70;;;28.53;;
6053;SDS011;3055;50.886;14.814;2022-11-15T12:27:55;44.07;;;27.97;;
6053;SDS011;3055;50.886;14.814;2022-11-15T12:30:27;45.33;;;29.43;;
6053;SDS011;3055;50.886;14.814;2022-11-15T12:33:17;48.53;;;29.60;;
6053;SDS011;3055;50.886;14.814;2022-11-15T12:35:58;46.97;;;28.23;;
6053;SDS011;3055;50.886;14.814;2022-11-15T12:41:23;44.30;;;28.73;;
6053;SDS011;3055;50.886;14.814;2022-11-15T12:43:51;46.07;;;28.17;;
6053;SDS011;3055;50.886;14.814;2022-11-15T12:46:20;41.83;;;27.00;;
6053;SDS011;3055;50.886;14.814;2022-11-15T12:48:53;43.27;;;28.53;;
6053;SDS011;3055;50.886;14.814;2022-11-15T12:52:03;45.83;;;28.83;;
6053;SDS011;3055;50.886;14.814;2022-11-15T12:54:54;43.93;;;27.83;;
6053;SDS011;3055;50.886;14.814;2022-11-15T12:57:31;47.73;;;28.97;;
6053;SDS011;3055;50.886;14.814;2022-11-15T13:00:19;46.67;;;28.10;;
6053;SDS011;3055;50.886;14.814;2022-11-15T13:03:24;47.93;;;30.40;;
6053;SDS011;3055;50.886;14.814;2022-11-15T13:06:00;50.23;;;31.33;;
6053;SDS011;3055;50.886;14.814;2022-11-15T13:08:46;46.73;;;30.17;;
6053;SDS011;3055;50.886;14.814;2022-11-15T13:17:22;49.93;;;31.57;;
6053;SDS011;3055;50.886;14.814;2022-11-15T13:19:56;53.90;;;32.00;;
6053;SDS011;3055;50.886;14.814;2022-11-15T13:22:26;50.37;;;31.57;;
6053;SDS011;3055;50.886;14.814;2022-11-15T13:25:14;48.43;;;31.73;;
6053;SDS011;3055;50.886;14.814;2022-11-15T13:27:45;54.40;;;32.80;;
6053;SDS011;3055;50.886;14.814;2022-11-15T13:30:16;49.93;;;32.27;;
6053;SDS011;3055;50.886;14.814;2022-11-15T13:32:47;53.33;;;33.33;;
6053;SDS011;3055;50.886;14.814;2022-11-15T13:35:20;54.43;;;33.27;;
6053;SDS011;3055;50.886;14.814;2022-11-15T13:37:49;55.93;;;32.80;;
6053;SDS011;3055;50.886;14.814;2022-11-15T13:40:24;56.33;;;35.13;;
6053;SDS011;3055;50.886;14.814;2022-11-15T13:42:55;53.93;;;31.83;;
6053;SDS011;3055;50.886;14.814;2022-11-15T13:45:23;59.40;;;35.23;;
6053;SDS011;3055;50.886;14.814;2022-11-15T13:47:53;55.43;;;32.10;;
6053;SDS011;3055;50.886;14.814;2022-11-15T13:50:23;61.17;;;33.20;;
6053;SDS011;3055;50.886;14.814;2022-11-15T13:52:56;57.87;;;34.00;;
6053;SDS011;3055;50.886;14.814;2022-11-15T13:55:26;57.87;;;34.43;;
6053;SDS011;3055;50.886;14.814;2022-11-15T13:57:54;60.17;;;32.67;;
6053;SDS011;3055;50.886;14.814;2022-11-15T14:00:30;61.10;;;35.00;;
6053;SDS011;3055;50.886;14.814;2022-11-15T14:03:05;60.50;;;35.50;;
6053;SDS011;3055;50.886;14.814;2022-11-15T14:05:40;54.47;;;33.77;;
6053;SDS011;3055;50.886;14.814;2022-11-15T14:08:13;53.13;;;33.67;;
6053;SDS011;3055;50.886;14.814;2022-11-15T14:10:48;55.97;;;33.37;;
6053;SDS011;3055;50.886;14.814;2022-11-15T14:13:33;55.43;;;34.03;;
6053;SDS011;3055;50.886;14.814;2022-11-15T14:16:12;56.30;;;34.67;;
6053;SDS011;3055;50.886;14.814;2022-11-15T14:18:42;57.57;;;34.37;;
6053;SDS011;3055;50.886;14.814;2022-11-15T14:21:12;57.77;;;33.10;;
6053;SDS011;3055;50.886;14.814;2022-11-15T14:23:40;62.43;;;34.10;;
6053;SDS011;3055;50.886;14.814;2022-11-15T14:26:11;64.37;;;33.63;;
6053;SDS011;3055;50.886;14.814;2022-11-15T14:28:53;54.80;;;33.67;;
6053;SDS011;3055;50.886;14.814;2022-11-15T14:31:20;57.90;;;34.70;;
6053;SDS011;3055;50.886;14.814;2022-11-15T14:33:48;62.03;;;35.03;;
6053;SDS011;3055;50.886;14.814;2022-11-15T14:36:17;64.83;;;35.20;;
6053;SDS011;3055;50.886;14.814;2022-11-15T14:38:45;68.17;;;36.20;;
6053;SDS011;3055;50.886;14.814;2022-11-15T14:41:20;59.83;;;35.37;;
6053;SDS011;3055;50.886;14.814;2022-11-15T14:43:49;63.80;;;37.03;;
6053;SDS011;3055;50.886;14.814;2022-11-15T14:46:16;58.00;;;36.17;;
6053;SDS011;3055;50.886;14.814;2022-11-15T14:48:44;61.97;;;36.27;;
6053;SDS011;3055;50.886;14.814;2022-11-15T14:51:12;61.57;;;35.40;;
6053;SDS011;3055;50.886;14.814;2022-11-15T14:53:41;65.07;;;36.40;;
6053;SDS011;3055;50.886;14.814;2022-11-15T14:56:09;59.77;;;35.33;;
6053;SDS011;3055;50.886;14.814;2022-11-15T14:58:37;65.43;;;35.63;;
6053;SDS011;3055;50.886;14.814;2022-11-15T15:01:09;64.50;;;35.83;;
6053;SDS011;3055;50.886;14.814;2022-11-15T15:03:39;63.80;;;36.57;;
6053;SDS011;3055;50.886;14.814;2022-11-15T15:06:06;63.83;;;36.43;;
6053;SDS011;3055;50.886;14.814;2022-11-15T15:08:34;67.20;;;38.00;;